sensor_id;sensor_type;location;lat;lon;timestamp;temperature;humidity
5689;DHT22;2869;50.432;8.680;2022-12-07T00:01:47;2.80;99.90
5689;DHT22;2869;50.432;8.680;2022-12-07T00:04:16;2.80;99.90
5689;DHT22;2869;50.432;8.680;2022-12-07T00:06:44;2.80;99.90
5689;DHT22;2869;50.432;8.680;2022-12-07T00:09:14;2.80;99.90
5689;DHT22;2869;50.432;8.680;2022-12-07T00:11:42;2.80;99.90
5689;DHT22;2869;50.432;8.680;2022-12-07T00:14:12;2.80;99.90
5689;DHT22;2869;50.432;8.680;2022-12-07T00:16:40;2.80;99.90
5689;DHT22;2869;50.432;8.680;2022-12-07T00:19:07;2.80;99.90
5689;DHT22;2869;50.432;8.680;2022-12-07T00:21:35;2.80;99.90
5689;DHT22;2869;50.432;8.680;2022-12-07T00:24:03;2.90;99.90
5689;DHT22;2869;50.432;8.680;2022-12-07T00:26:32;2.90;99.90
5689;DHT22;2869;50.432;8.680;2022-12-07T00:29:02;2.90;99.90
5689;DHT22;2869;50.432;8.680;2022-12-07T00:31:32;3.00;99.90
5689;DHT22;2869;50.432;8.680;2022-12-07T00:34:00;3.00;99.90
5689;DHT22;2869;50.432;8.680;2022-12-07T00:36:27;3.00;99.90
5689;DHT22;2869;50.432;8.680;2022-12-07T00:38:54;3.00;99.90
5689;DHT22;2869;50.432;8.680;2022-12-07T00:41:23;3.00;99.90
5689;DHT22;2869;50.432;8.680;2022-12-07T00:43:50;3.00;99.90
5689;DHT22;2869;50.432;8.680;2022-12-07T00:46:19;3.00;99.90
5689;DHT22;2869;50.432;8.680;2022-12-07T00:48:47;3.00;99.90
5689;DHT22;2869;50.432;8.680;2022-12-07T00:51:16;3.00;99.90
5689;DHT22;2869;50.432;8.680;2022-12-07T00:53:43;3.00;99.90
5689;DHT22;2869;50.432;8.680;2022-12-07T00:56:13;3.00;99.90
5689;DHT22;2869;50.432;8.680;2022-12-07T00:58:40;3.00;99.90
5689;DHT22;2869;50.432;8.680;2022-12-07T01:01:08;3.00;99.90
5689;DHT22;2869;50.432;8.680;2022-12-07T01:03:37;3.00;99.90
5689;DHT22;2869;50.432;8.680;2022-12-07T01:06:04;3.00;99.90
5689;DHT22;2869;50.432;8.680;2022-12-07T01:08:33;3.10;99.90
5689;DHT22;2869;50.432;8.680;2022-12-07T01:11:02;3.10;99.90
5689;DHT22;2869;50.432;8.680;2022-12-07T01:13:29;3.10;99.90
5689;DHT22;2869;50.432;8.680;2022-12-07T01:15:57;3.10;99.90
5689;DHT22;2869;50.432;8.680;2022-12-07T01:18:26;3.10;99.90
5689;DHT22;2869;50.432;8.680;2022-12-07T01:21:02;3.10;99.90
5689;DHT22;2869;50.432;8.680;2022-12-07T01:23:29;3.10;99.90
5689;DHT22;2869;50.432;8.680;2022-12-07T01:25:57;3.10;99.90
5689;DHT22;2869;50.432;8.680;2022-12-07T01:28:24;3.10;99.90
5689;DHT22;2869;50.432;8.680;2022-12-07T01:30:58;3.20;99.90
5689;DHT22;2869;50.432;8.680;2022-12-07T01:33:27;3.20;99.90
5689;DHT22;2869;50.432;8.680;2022-12-07T01:35:54;3.30;99.90
5689;DHT22;2869;50.432;8.680;2022-12-07T01:38:22;3.30;99.90
5689;DHT22;2869;50.432;8.680;2022-12-07T01:40:54;3.30;99.90
5689;DHT22;2869;50.432;8.680;2022-12-07T01:43:22;3.40;99.90
5689;DHT22;2869;50.432;8.680;2022-12-07T01:45:50;3.30;99.90
5689;DHT22;2869;50.432;8.680;2022-12-07T01:48:20;3.30;99.90
5689;DHT22;2869;50.432;8.680;2022-12-07T01:50:50;3.30;99.90
5689;DHT22;2869;50.432;8.680;2022-12-07T01:53:17;3.30;99.90
5689;DHT22;2869;50.432;8.680;2022-12-07T01:55:48;3.20;99.90
5689;DHT22;2869;50.432;8.680;2022-12-07T01:58:16;3.20;99.90
5689;DHT22;2869;50.432;8.680;2022-12-07T02:00:43;3.20;99.90
5689;DHT22;2869;50.432;8.680;2022-12-07T02:03:15;3.20;99.90
5689;DHT22;2869;50.432;8.680;2022-12-07T02:05:44;3.30;99.90
5689;DHT22;2869;50.432;8.680;2022-12-07T02:08:12;3.30;99.90
5689;DHT22;2869;50.432;8.680;2022-12-07T02:10:39;3.30;99.90
5689;DHT22;2869;50.432;8.680;2022-12-07T02:13:11;3.30;99.90
5689;DHT22;2869;50.432;8.680;2022-12-07T02:15:47;3.30;99.90
5689;DHT22;2869;50.432;8.680;2022-12-07T02:18:22;3.20;99.90
5689;DHT22;2869;50.432;8.680;2022-12-07T02:20:55;3.20;99.90
5689;DHT22;2869;50.432;8.680;2022-12-07T02:23:40;3.20;99.90
5689;DHT22;2869;50.432;8.680;2022-12-07T02:26:23;3.20;99.90
5689;DHT22;2869;50.432;8.680;2022-12-07T02:29:12;3.20;99.90
5689;DHT22;2869;50.432;8.680;2022-12-07T02:31:44;3.20;99.90
5689;DHT22;2869;50.432;8.680;2022-12-07T02:34:18;3.20;99.90
5689;DHT22;2869;50.432;8.680;2022-12-07T02:36:51;3.20;99.90
5689;DHT22;2869;50.432;8.680;2022-12-07T02:39:23;3.20;99.90
5689;DHT22;2869;50.432;8.680;2022-12-07T02:41:54;3.20;99.90
5689;DHT22;2869;50.432;8.680;2022-12-07T02:44:25;3.30;99.90
5689;DHT22;2869;50.432;8.680;2022-12-07T02:46:55;3.30;99.90
5689;DHT22;2869;50.432;8.680;2022-12-07T02:49:25;3.30;99.90
5689;DHT22;2869;50.432;8.680;2022-12-07T02:51:53;3.30;99.90
5689;DHT22;2869;50.432;8.680;2022-12-07T02:54:20;3.30;99.90
5689;DHT22;2869;50.432;8.680;2022-12-07T02:56:50;3.30;99.90
5689;DHT22;2869;50.432;8.680;2022-12-07T02:59:25;3.30;99.90
5689;DHT22;2869;50.432;8.680;2022-12-07T03:02:04;3.20;99.90
5689;DHT22;2869;50.432;8.680;2022-12-07T03:04:42;3.20;99.90
5689;DHT22;2869;50.432;8.680;2022-12-07T03:07:16;3.20;99.90
5689;DHT22;2869;50.432;8.680;2022-12-07T03:09:50;3.20;99.90
5689;DHT22;2869;50.432;8.680;2022-12-07T03:12:25;3.20;99.90
5689;DHT22;2869;50.432;8.680;2022-12-07T03:15:02;3.20;99.90
5689;DHT22;2869;50.432;8.680;2022-12-07T03:17:33;3.20;99.90
5689;DHT22;2869;50.432;8.680;2022-12-07T03:20:04;3.20;99.90
5689;DHT22;2869;50.432;8.680;2022-12-07T03:22:34;3.20;99.90
5689;DHT22;2869;50.432;8.680;2022-12-07T03:25:06;3.30;99.90
5689;DHT22;2869;50.432;8.680;2022-12-07T03:27:38;3.30;99.90
5689;DHT22;2869;50.432;8.680;2022-12-07T03:30:09;3.30;99.90
5689;DHT22;2869;50.432;8.680;2022-12-07T03:32:40;3.30;99.90
5689;DHT22;2869;50.432;8.680;2022-12-07T03:35:12;3.30;99.90
5689;DHT22;2869;50.432;8.680;2022-12-07T03:37:45;3.30;99.90
5689;DHT22;2869;50.432;8.680;2022-12-07T03:40:19;3.30;99.90
5689;DHT22;2869;50.432;8.680;2022-12-07T03:42:49;3.30;99.90
5689;DHT22;2869;50.432;8.680;2022-12-07T03:45:19;3.30;99.90
5689;DHT22;2869;50.432;8.680;2022-12-07T03:47:53;3.40;99.90
5689;DHT22;2869;50.432;8.680;2022-12-07T03:50:28;3.40;99.90
5689;DHT22;2869;50.432;8.680;2022-12-07T03:52:58;3.40;99.90
5689;DHT22;2869;50.432;8.680;2022-12-07T03:55:29;3.40;99.90
5689;DHT22;2869;50.432;8.680;2022-12-07T03:57:59;3.40;99.90
5689;DHT22;2869;50.432;8.680;2022-12-07T04:00:29;3.40;99.90
5689;DHT22;2869;50.432;8.680;2022-12-07T04:02:56;3.40;99.90
5689;DHT22;2869;50.432;8.680;2022-12-07T04:05:23;3.40;99.90
5689;DHT22;2869;50.432;8.680;2022-12-07T04:07:50;3.40;99.90
5689;DHT22;2869;50.432;8.680;2022-12-07T04:10:17;3.40;99.90
5689;DHT22;2869;50.432;8.680;2022-12-07T04:12:43;3.40;99.90
5689;DHT22;2869;50.432;8.680;2022-12-07T04:15:10;3.40;99.90
5689;DHT22;2869;50.432;8.680;2022-12-07T04:17:39;3.40;99.90
5689;DHT22;2869;50.432;8.680;2022-12-07T04:20:06;3.40;99.90
5689;DHT22;2869;50.432;8.680;2022-12-07T04:22:33;3.40;99.90
5689;DHT22;2869;50.432;8.680;2022-12-07T04:25:00;3.40;99.90
5689;DHT22;2869;50.432;8.680;2022-12-07T04:27:27;3.40;99.90
5689;DHT22;2869;50.432;8.680;2022-12-07T04:29:53;3.40;99.90
5689;DHT22;2869;50.432;8.680;2022-12-07T04:32:21;3.40;99.90
5689;DHT22;2869;50.432;8.680;2022-12-07T04:34:49;3.40;99.90
5689;DHT22;2869;50.432;8.680;2022-12-07T04:37:15;3.40;99.90
5689;DHT22;2869;50.432;8.680;2022-12-07T04:39:43;3.40;99.90
5689;DHT22;2869;50.432;8.680;2022-12-07T04:42:10;3.40;99.90
5689;DHT22;2869;50.432;8.680;2022-12-07T04:44:38;3.50;99.90
5689;DHT22;2869;50.432;8.680;2022-12-07T04:47:05;3.50;99.90
5689;DHT22;2869;50.432;8.680;2022-12-07T04:49:31;3.50;99.90
5689;DHT22;2869;50.432;8.680;2022-12-07T04:51:59;3.50;99.90
5689;DHT22;2869;50.432;8.680;2022-12-07T04:54:26;3.50;99.90
5689;DHT22;2869;50.432;8.680;2022-12-07T04:56:53;3.50;99.90
5689;DHT22;2869;50.432;8.680;2022-12-07T04:59:19;3.50;99.90
5689;DHT22;2869;50.432;8.680;2022-12-07T05:01:46;3.50;99.90
5689;DHT22;2869;50.432;8.680;2022-12-07T05:04:13;3.50;99.90
5689;DHT22;2869;50.432;8.680;2022-12-07T05:06:41;3.50;99.90
5689;DHT22;2869;50.432;8.680;2022-12-07T05:09:09;3.50;99.90
5689;DHT22;2869;50.432;8.680;2022-12-07T05:11:36;3.50;99.90
5689;DHT22;2869;50.432;8.680;2022-12-07T05:14:10;3.50;99.90
5689;DHT22;2869;50.432;8.680;2022-12-07T05:16:37;3.50;99.90
5689;DHT22;2869;50.432;8.680;2022-12-07T05:19:04;3.50;99.90
5689;DHT22;2869;50.432;8.680;2022-12-07T05:21:31;3.50;99.90
5689;DHT22;2869;50.432;8.680;2022-12-07T05:23:58;3.50;99.90
5689;DHT22;2869;50.432;8.680;2022-12-07T05:26:26;3.50;99.90
5689;DHT22;2869;50.432;8.680;2022-12-07T05:28:53;3.50;99.90
5689;DHT22;2869;50.432;8.680;2022-12-07T05:31:20;3.50;99.90
5689;DHT22;2869;50.432;8.680;2022-12-07T05:33:47;3.50;99.90
5689;DHT22;2869;50.432;8.680;2022-12-07T05:36:14;3.50;99.90
5689;DHT22;2869;50.432;8.680;2022-12-07T05:38:41;3.50;99.90
5689;DHT22;2869;50.432;8.680;2022-12-07T05:41:09;3.60;99.90
5689;DHT22;2869;50.432;8.680;2022-12-07T05:43:59;3.50;99.90
5689;DHT22;2869;50.432;8.680;2022-12-07T05:46:26;3.50;99.90
5689;DHT22;2869;50.432;8.680;2022-12-07T05:48:53;3.60;99.90
5689;DHT22;2869;50.432;8.680;2022-12-07T05:51:20;3.60;99.90
5689;DHT22;2869;50.432;8.680;2022-12-07T05:53:47;3.60;99.90
5689;DHT22;2869;50.432;8.680;2022-12-07T05:56:14;3.60;99.90
5689;DHT22;2869;50.432;8.680;2022-12-07T05:58:40;3.60;99.90
5689;DHT22;2869;50.432;8.680;2022-12-07T06:01:26;3.60;99.90
5689;DHT22;2869;50.432;8.680;2022-12-07T06:03:53;3.60;99.90
5689;DHT22;2869;50.432;8.680;2022-12-07T06:06:20;3.60;99.90
5689;DHT22;2869;50.432;8.680;2022-12-07T06:08:46;3.50;99.90
5689;DHT22;2869;50.432;8.680;2022-12-07T06:11:13;3.60;99.90
5689;DHT22;2869;50.432;8.680;2022-12-07T06:13:57;3.50;99.90
5689;DHT22;2869;50.432;8.680;2022-12-07T06:16:25;3.50;99.90
5689;DHT22;2869;50.432;8.680;2022-12-07T06:18:52;3.60;99.90
5689;DHT22;2869;50.432;8.680;2022-12-07T06:21:19;3.60;99.90
5689;DHT22;2869;50.432;8.680;2022-12-07T06:23:45;3.60;99.90
5689;DHT22;2869;50.432;8.680;2022-12-07T06:26:13;3.60;99.90
5689;DHT22;2869;50.432;8.680;2022-12-07T06:28:40;3.60;99.90
5689;DHT22;2869;50.432;8.680;2022-12-07T06:31:07;3.60;99.90
5689;DHT22;2869;50.432;8.680;2022-12-07T06:33:35;3.70;99.90
5689;DHT22;2869;50.432;8.680;2022-12-07T06:36:02;3.70;99.90
5689;DHT22;2869;50.432;8.680;2022-12-07T06:38:29;3.70;99.90
5689;DHT22;2869;50.432;8.680;2022-12-07T06:40:55;3.70;99.90
5689;DHT22;2869;50.432;8.680;2022-12-07T06:43:22;3.70;99.90
5689;DHT22;2869;50.432;8.680;2022-12-07T06:45:49;3.70;99.90
5689;DHT22;2869;50.432;8.680;2022-12-07T06:48:16;3.70;99.90
5689;DHT22;2869;50.432;8.680;2022-12-07T06:50:45;3.80;99.90
5689;DHT22;2869;50.432;8.680;2022-12-07T06:53:12;3.80;99.90
5689;DHT22;2869;50.432;8.680;2022-12-07T06:55:39;3.80;99.90
5689;DHT22;2869;50.432;8.680;2022-12-07T06:58:05;3.80;99.90
5689;DHT22;2869;50.432;8.680;2022-12-07T07:00:32;3.80;99.90
5689;DHT22;2869;50.432;8.680;2022-12-07T07:03:00;3.80;99.90
5689;DHT22;2869;50.432;8.680;2022-12-07T07:05:26;3.80;99.90
5689;DHT22;2869;50.432;8.680;2022-12-07T07:07:54;3.80;99.90
5689;DHT22;2869;50.432;8.680;2022-12-07T07:10:21;3.80;99.90
5689;DHT22;2869;50.432;8.680;2022-12-07T07:12:48;3.80;99.90
5689;DHT22;2869;50.432;8.680;2022-12-07T07:15:15;3.90;99.90
5689;DHT22;2869;50.432;8.680;2022-12-07T07:17:41;3.90;99.90
5689;DHT22;2869;50.432;8.680;2022-12-07T07:20:09;3.90;99.90
5689;DHT22;2869;50.432;8.680;2022-12-07T07:22:36;3.80;99.90
5689;DHT22;2869;50.432;8.680;2022-12-07T07:25:04;3.80;99.90
5689;DHT22;2869;50.432;8.680;2022-12-07T07:27:31;3.80;99.90
5689;DHT22;2869;50.432;8.680;2022-12-07T07:29:57;3.80;99.90
5689;DHT22;2869;50.432;8.680;2022-12-07T07:32:24;3.80;99.90
5689;DHT22;2869;50.432;8.680;2022-12-07T07:34:51;3.80;99.90
5689;DHT22;2869;50.432;8.680;2022-12-07T07:37:17;3.80;99.90
5689;DHT22;2869;50.432;8.680;2022-12-07T07:39:44;3.70;99.90
5689;DHT22;2869;50.432;8.680;2022-12-07T07:42:12;3.70;99.90
5689;DHT22;2869;50.432;8.680;2022-12-07T07:44:39;3.60;99.90
5689;DHT22;2869;50.432;8.680;2022-12-07T07:47:06;3.70;99.90
5689;DHT22;2869;50.432;8.680;2022-12-07T07:49:32;3.60;99.90
5689;DHT22;2869;50.432;8.680;2022-12-07T07:51:59;3.60;99.90
5689;DHT22;2869;50.432;8.680;2022-12-07T07:54:26;3.60;99.90
5689;DHT22;2869;50.432;8.680;2022-12-07T07:56:52;3.60;99.90
5689;DHT22;2869;50.432;8.680;2022-12-07T07:59:20;3.60;99.90
5689;DHT22;2869;50.432;8.680;2022-12-07T08:01:47;3.60;99.90
5689;DHT22;2869;50.432;8.680;2022-12-07T08:04:14;3.60;99.90
5689;DHT22;2869;50.432;8.680;2022-12-07T08:06:41;3.70;99.90
5689;DHT22;2869;50.432;8.680;2022-12-07T08:09:08;3.70;99.90
5689;DHT22;2869;50.432;8.680;2022-12-07T08:11:35;3.70;99.90
5689;DHT22;2869;50.432;8.680;2022-12-07T08:14:02;3.70;99.90
5689;DHT22;2869;50.432;8.680;2022-12-07T08:16:31;3.80;99.90
5689;DHT22;2869;50.432;8.680;2022-12-07T08:18:57;4.00;99.90
5689;DHT22;2869;50.432;8.680;2022-12-07T08:21:24;4.30;99.90
5689;DHT22;2869;50.432;8.680;2022-12-07T08:23:51;4.70;99.90
5689;DHT22;2869;50.432;8.680;2022-12-07T08:26:17;4.80;99.90
5689;DHT22;2869;50.432;8.680;2022-12-07T08:28:44;4.80;99.90
5689;DHT22;2869;50.432;8.680;2022-12-07T08:31:13;4.70;99.90
5689;DHT22;2869;50.432;8.680;2022-12-07T08:33:41;4.50;99.90
5689;DHT22;2869;50.432;8.680;2022-12-07T08:36:10;4.40;99.90
5689;DHT22;2869;50.432;8.680;2022-12-07T08:38:38;4.40;99.90
5689;DHT22;2869;50.432;8.680;2022-12-07T08:41:06;4.60;99.90
5689;DHT22;2869;50.432;8.680;2022-12-07T08:43:33;4.80;99.90
5689;DHT22;2869;50.432;8.680;2022-12-07T08:46:06;4.90;99.90
5689;DHT22;2869;50.432;8.680;2022-12-07T08:48:35;5.10;99.90
5689;DHT22;2869;50.432;8.680;2022-12-07T08:51:04;5.20;99.90
5689;DHT22;2869;50.432;8.680;2022-12-07T08:53:31;5.30;99.90
5689;DHT22;2869;50.432;8.680;2022-12-07T08:56:00;5.50;99.90
5689;DHT22;2869;50.432;8.680;2022-12-07T08:58:26;5.60;99.90
5689;DHT22;2869;50.432;8.680;2022-12-07T09:00:53;5.70;99.90
5689;DHT22;2869;50.432;8.680;2022-12-07T09:03:20;5.80;99.90
5689;DHT22;2869;50.432;8.680;2022-12-07T09:05:46;6.00;99.90
5689;DHT22;2869;50.432;8.680;2022-12-07T09:08:15;6.00;99.90
5689;DHT22;2869;50.432;8.680;2022-12-07T09:10:42;6.10;99.90
5689;DHT22;2869;50.432;8.680;2022-12-07T09:13:08;6.20;99.90
5689;DHT22;2869;50.432;8.680;2022-12-07T09:15:35;6.20;99.90
5689;DHT22;2869;50.432;8.680;2022-12-07T09:18:02;6.20;99.90
5689;DHT22;2869;50.432;8.680;2022-12-07T09:20:29;6.30;99.90
5689;DHT22;2869;50.432;8.680;2022-12-07T09:22:56;6.50;99.90
5689;DHT22;2869;50.432;8.680;2022-12-07T09:25:24;6.60;99.90
5689;DHT22;2869;50.432;8.680;2022-12-07T09:27:55;6.70;99.90
5689;DHT22;2869;50.432;8.680;2022-12-07T09:30:22;7.00;99.90
5689;DHT22;2869;50.432;8.680;2022-12-07T09:32:48;7.30;99.90
5689;DHT22;2869;50.432;8.680;2022-12-07T09:35:15;7.50;99.90
5689;DHT22;2869;50.432;8.680;2022-12-07T09:37:42;7.50;99.90
5689;DHT22;2869;50.432;8.680;2022-12-07T09:40:09;7.60;99.90
5689;DHT22;2869;50.432;8.680;2022-12-07T09:42:39;7.60;99.90
5689;DHT22;2869;50.432;8.680;2022-12-07T09:45:14;7.60;99.90
5689;DHT22;2869;50.432;8.680;2022-12-07T09:47:41;7.70;99.90
5689;DHT22;2869;50.432;8.680;2022-12-07T09:50:13;7.60;99.90
5689;DHT22;2869;50.432;8.680;2022-12-07T09:52:40;7.30;99.90
5689;DHT22;2869;50.432;8.680;2022-12-07T09:55:12;7.10;99.90
5689;DHT22;2869;50.432;8.680;2022-12-07T09:57:41;7.30;99.90
5689;DHT22;2869;50.432;8.680;2022-12-07T10:00:14;7.50;99.90
5689;DHT22;2869;50.432;8.680;2022-12-07T10:02:42;7.70;99.90
5689;DHT22;2869;50.432;8.680;2022-12-07T10:05:13;7.90;99.90
5689;DHT22;2869;50.432;8.680;2022-12-07T10:07:39;8.30;99.90
5689;DHT22;2869;50.432;8.680;2022-12-07T10:10:14;8.70;99.90
5689;DHT22;2869;50.432;8.680;2022-12-07T10:12:55;8.90;99.90
5689;DHT22;2869;50.432;8.680;2022-12-07T10:15:22;9.10;99.90
5689;DHT22;2869;50.432;8.680;2022-12-07T10:17:50;9.30;99.90
5689;DHT22;2869;50.432;8.680;2022-12-07T10:20:21;9.60;99.90
5689;DHT22;2869;50.432;8.680;2022-12-07T10:22:56;9.80;99.90
5689;DHT22;2869;50.432;8.680;2022-12-07T10:25:26;9.90;99.90
5689;DHT22;2869;50.432;8.680;2022-12-07T10:28:03;10.00;99.90
5689;DHT22;2869;50.432;8.680;2022-12-07T10:30:47;10.10;99.90
5689;DHT22;2869;50.432;8.680;2022-12-07T10:33:31;10.40;99.90
5689;DHT22;2869;50.432;8.680;2022-12-07T10:35:59;10.00;99.90
5689;DHT22;2869;50.432;8.680;2022-12-07T10:38:26;9.80;99.90
5689;DHT22;2869;50.432;8.680;2022-12-07T10:41:03;9.50;99.90
5689;DHT22;2869;50.432;8.680;2022-12-07T10:43:31;9.20;99.90
5689;DHT22;2869;50.432;8.680;2022-12-07T10:46:19;8.70;99.90
5689;DHT22;2869;50.432;8.680;2022-12-07T10:48:58;8.10;99.90
5689;DHT22;2869;50.432;8.680;2022-12-07T10:51:36;8.10;99.90
5689;DHT22;2869;50.432;8.680;2022-12-07T10:54:12;8.00;99.90
5689;DHT22;2869;50.432;8.680;2022-12-07T10:56:57;8.30;99.90
5689;DHT22;2869;50.432;8.680;2022-12-07T10:59:52;8.50;99.90
5689;DHT22;2869;50.432;8.680;2022-12-07T11:02:42;8.60;99.90
5689;DHT22;2869;50.432;8.680;2022-12-07T11:05:19;8.40;99.90
5689;DHT22;2869;50.432;8.680;2022-12-07T11:07:59;7.90;99.90
5689;DHT22;2869;50.432;8.680;2022-12-07T11:10:33;7.30;99.90
5689;DHT22;2869;50.432;8.680;2022-12-07T11:13:17;7.30;99.90
5689;DHT22;2869;50.432;8.680;2022-12-07T11:15:55;7.30;99.90
5689;DHT22;2869;50.432;8.680;2022-12-07T11:18:28;7.30;99.90
5689;DHT22;2869;50.432;8.680;2022-12-07T11:21:04;7.20;99.90
5689;DHT22;2869;50.432;8.680;2022-12-07T11:23:43;7.00;99.90
5689;DHT22;2869;50.432;8.680;2022-12-07T11:26:18;7.20;99.90
5689;DHT22;2869;50.432;8.680;2022-12-07T11:29:15;7.40;99.90
5689;DHT22;2869;50.432;8.680;2022-12-07T11:31:54;7.80;99.90
5689;DHT22;2869;50.432;8.680;2022-12-07T11:34:31;7.90;99.90
5689;DHT22;2869;50.432;8.680;2022-12-07T11:37:02;8.00;99.90
5689;DHT22;2869;50.432;8.680;2022-12-07T11:39:33;8.00;99.90
5689;DHT22;2869;50.432;8.680;2022-12-07T11:42:05;8.00;99.90
5689;DHT22;2869;50.432;8.680;2022-12-07T11:44:36;7.80;99.90
5689;DHT22;2869;50.432;8.680;2022-12-07T11:47:09;7.50;99.90
5689;DHT22;2869;50.432;8.680;2022-12-07T11:49:42;7.20;99.90
5689;DHT22;2869;50.432;8.680;2022-12-07T11:52:18;7.10;99.90
5689;DHT22;2869;50.432;8.680;2022-12-07T11:54:46;6.90;99.90
5689;DHT22;2869;50.432;8.680;2022-12-07T11:57:21;7.00;99.90
5689;DHT22;2869;50.432;8.680;2022-12-07T11:59:52;7.40;99.90
5689;DHT22;2869;50.432;8.680;2022-12-07T12:02:28;7.70;99.90
5689;DHT22;2869;50.432;8.680;2022-12-07T12:05:02;8.10;99.90
5689;DHT22;2869;50.432;8.680;2022-12-07T12:07:32;8.10;99.90
5689;DHT22;2869;50.432;8.680;2022-12-07T12:10:02;7.90;99.90
5689;DHT22;2869;50.432;8.680;2022-12-07T12:12:47;7.80;99.90
5689;DHT22;2869;50.432;8.680;2022-12-07T12:15:27;7.60;99.90
5689;DHT22;2869;50.432;8.680;2022-12-07T12:18:27;7.50;99.90
5689;DHT22;2869;50.432;8.680;2022-12-07T12:20:58;7.30;99.90
5689;DHT22;2869;50.432;8.680;2022-12-07T12:23:35;7.20;99.90
5689;DHT22;2869;50.432;8.680;2022-12-07T12:26:05;7.10;99.90
5689;DHT22;2869;50.432;8.680;2022-12-07T12:28:38;7.10;99.90
5689;DHT22;2869;50.432;8.680;2022-12-07T12:31:13;7.00;99.90
5689;DHT22;2869;50.432;8.680;2022-12-07T12:33:45;7.10;99.90
5689;DHT22;2869;50.432;8.680;2022-12-07T12:36:22;7.30;99.90
5689;DHT22;2869;50.432;8.680;2022-12-07T12:38:51;7.60;99.90
5689;DHT22;2869;50.432;8.680;2022-12-07T12:41:55;7.80;99.90
5689;DHT22;2869;50.432;8.680;2022-12-07T12:47:54;8.20;99.90
5689;DHT22;2869;50.432;8.680;2022-12-07T12:50:24;8.40;99.90
5689;DHT22;2869;50.432;8.680;2022-12-07T12:53:02;8.50;99.90
5689;DHT22;2869;50.432;8.680;2022-12-07T12:55:50;8.50;99.90
5689;DHT22;2869;50.432;8.680;2022-12-07T12:59:16;8.30;99.90
5689;DHT22;2869;50.432;8.680;2022-12-07T13:01:46;7.90;99.90
5689;DHT22;2869;50.432;8.680;2022-12-07T13:04:34;7.70;99.90
5689;DHT22;2869;50.432;8.680;2022-12-07T13:07:08;7.60;99.90
5689;DHT22;2869;50.432;8.680;2022-12-07T13:09:36;7.70;99.90
5689;DHT22;2869;50.432;8.680;2022-12-07T13:12:13;7.70;99.90
5689;DHT22;2869;50.432;8.680;2022-12-07T13:14:57;7.20;99.90
5689;DHT22;2869;50.432;8.680;2022-12-07T13:17:56;6.90;99.90
5689;DHT22;2869;50.432;8.680;2022-12-07T13:20:45;6.90;99.90
5689;DHT22;2869;50.432;8.680;2022-12-07T13:23:14;6.80;99.90
5689;DHT22;2869;50.432;8.680;2022-12-07T13:25:51;6.70;99.90
5689;DHT22;2869;50.432;8.680;2022-12-07T13:28:18;6.70;99.90
5689;DHT22;2869;50.432;8.680;2022-12-07T13:30:54;6.80;99.90
5689;DHT22;2869;50.432;8.680;2022-12-07T13:33:27;7.00;99.90
5689;DHT22;2869;50.432;8.680;2022-12-07T13:35:55;7.20;99.90
5689;DHT22;2869;50.432;8.680;2022-12-07T13:38:27;7.30;99.90
5689;DHT22;2869;50.432;8.680;2022-12-07T13:41:11;7.20;99.90
5689;DHT22;2869;50.432;8.680;2022-12-07T13:43:48;7.20;99.90
5689;DHT22;2869;50.432;8.680;2022-12-07T13:46:15;7.20;99.90
5689;DHT22;2869;50.432;8.680;2022-12-07T13:48:45;7.30;99.90
5689;DHT22;2869;50.432;8.680;2022-12-07T13:51:19;7.30;99.90
5689;DHT22;2869;50.432;8.680;2022-12-07T13:53:48;7.30;99.90
5689;DHT22;2869;50.432;8.680;2022-12-07T13:56:15;7.00;99.90
5689;DHT22;2869;50.432;8.680;2022-12-07T13:58:42;6.90;99.90
5689;DHT22;2869;50.432;8.680;2022-12-07T14:01:09;6.80;99.90
5689;DHT22;2869;50.432;8.680;2022-12-07T14:03:35;6.60;99.90
5689;DHT22;2869;50.432;8.680;2022-12-07T14:06:06;6.50;99.90
5689;DHT22;2869;50.432;8.680;2022-12-07T14:08:33;6.60;99.90
5689;DHT22;2869;50.432;8.680;2022-12-07T14:11:01;6.50;99.90
5689;DHT22;2869;50.432;8.680;2022-12-07T14:13:31;6.40;99.90
5689;DHT22;2869;50.432;8.680;2022-12-07T14:15:59;6.20;99.90
5689;DHT22;2869;50.432;8.680;2022-12-07T14:18:27;6.10;99.90
5689;DHT22;2869;50.432;8.680;2022-12-07T14:21:03;6.00;99.90
5689;DHT22;2869;50.432;8.680;2022-12-07T14:23:30;5.80;99.90
5689;DHT22;2869;50.432;8.680;2022-12-07T14:26:07;5.70;99.90
5689;DHT22;2869;50.432;8.680;2022-12-07T14:28:36;5.80;99.90
5689;DHT22;2869;50.432;8.680;2022-12-07T14:31:04;5.70;99.90
5689;DHT22;2869;50.432;8.680;2022-12-07T14:33:35;5.70;99.90
5689;DHT22;2869;50.432;8.680;2022-12-07T14:36:02;5.60;99.90
5689;DHT22;2869;50.432;8.680;2022-12-07T14:38:28;5.50;99.90
5689;DHT22;2869;50.432;8.680;2022-12-07T14:40:56;5.40;99.90
5689;DHT22;2869;50.432;8.680;2022-12-07T14:43:45;5.30;99.90
5689;DHT22;2869;50.432;8.680;2022-12-07T14:46:12;5.20;99.90
5689;DHT22;2869;50.432;8.680;2022-12-07T14:48:39;5.10;99.90
5689;DHT22;2869;50.432;8.680;2022-12-07T14:51:07;5.10;99.90
5689;DHT22;2869;50.432;8.680;2022-12-07T14:53:38;5.10;99.90
5689;DHT22;2869;50.432;8.680;2022-12-07T14:56:06;5.00;99.90
5689;DHT22;2869;50.432;8.680;2022-12-07T14:58:33;5.00;99.90
5689;DHT22;2869;50.432;8.680;2022-12-07T15:01:01;5.00;99.90
5689;DHT22;2869;50.432;8.680;2022-12-07T15:03:28;4.90;99.90
5689;DHT22;2869;50.432;8.680;2022-12-07T15:05:55;4.90;99.90
5689;DHT22;2869;50.432;8.680;2022-12-07T15:08:22;4.90;99.90
5689;DHT22;2869;50.432;8.680;2022-12-07T15:10:49;4.80;99.90
5689;DHT22;2869;50.432;8.680;2022-12-07T15:13:16;4.80;99.90
5689;DHT22;2869;50.432;8.680;2022-12-07T15:16:02;4.80;99.90
5689;DHT22;2869;50.432;8.680;2022-12-07T15:18:28;4.80;99.90
5689;DHT22;2869;50.432;8.680;2022-12-07T15:20:55;4.80;99.90
5689;DHT22;2869;50.432;8.680;2022-12-07T15:23:22;4.80;99.90
5689;DHT22;2869;50.432;8.680;2022-12-07T15:25:49;4.70;99.90
5689;DHT22;2869;50.432;8.680;2022-12-07T15:28:16;4.70;99.90
5689;DHT22;2869;50.432;8.680;2022-12-07T15:30:43;4.70;99.90
5689;DHT22;2869;50.432;8.680;2022-12-07T15:33:12;4.70;99.90
5689;DHT22;2869;50.432;8.680;2022-12-07T15:35:39;4.60;99.90
5689;DHT22;2869;50.432;8.680;2022-12-07T15:38:06;4.50;99.90
5689;DHT22;2869;50.432;8.680;2022-12-07T15:40:33;4.50;99.90
5689;DHT22;2869;50.432;8.680;2022-12-07T15:43:00;4.50;99.90
5689;DHT22;2869;50.432;8.680;2022-12-07T15:45:27;4.50;99.90
5689;DHT22;2869;50.432;8.680;2022-12-07T15:47:53;4.40;99.90
5689;DHT22;2869;50.432;8.680;2022-12-07T15:50:22;4.40;99.90
5689;DHT22;2869;50.432;8.680;2022-12-07T15:52:49;4.40;99.90
5689;DHT22;2869;50.432;8.680;2022-12-07T15:55:15;4.40;99.90
5689;DHT22;2869;50.432;8.680;2022-12-07T15:57:42;4.30;99.90
5689;DHT22;2869;50.432;8.680;2022-12-07T16:00:10;4.30;99.90
5689;DHT22;2869;50.432;8.680;2022-12-07T16:02:37;4.30;99.90
5689;DHT22;2869;50.432;8.680;2022-12-07T16:05:04;4.30;99.90
5689;DHT22;2869;50.432;8.680;2022-12-07T16:07:32;4.30;99.90
5689;DHT22;2869;50.432;8.680;2022-12-07T16:09:59;4.30;99.90
5689;DHT22;2869;50.432;8.680;2022-12-07T16:12:26;4.30;99.90
5689;DHT22;2869;50.432;8.680;2022-12-07T16:14:52;4.20;99.90
5689;DHT22;2869;50.432;8.680;2022-12-07T16:17:19;4.20;99.90
5689;DHT22;2869;50.432;8.680;2022-12-07T16:19:46;4.20;99.90
5689;DHT22;2869;50.432;8.680;2022-12-07T16:22:12;4.20;99.90
5689;DHT22;2869;50.432;8.680;2022-12-07T16:24:40;4.20;99.90
5689;DHT22;2869;50.432;8.680;2022-12-07T16:27:07;4.10;99.90
5689;DHT22;2869;50.432;8.680;2022-12-07T16:29:34;4.20;99.90
5689;DHT22;2869;50.432;8.680;2022-12-07T16:32:00;4.20;99.90
5689;DHT22;2869;50.432;8.680;2022-12-07T16:34:27;4.10;99.90
5689;DHT22;2869;50.432;8.680;2022-12-07T16:36:54;4.20;99.90
5689;DHT22;2869;50.432;8.680;2022-12-07T16:39:20;4.10;99.90
5689;DHT22;2869;50.432;8.680;2022-12-07T16:41:48;4.10;99.90